Time;durP1;ratioP1;P1;durP2;ratioP2;P2;SDS_P1;SDS_P2;PMS_P1;PMS_P2;Temp;Humidity;BMP_temperature;BMP_pressure;BME280_temperature;BME280_humidity;BME280_pressure;Samples;Min_cycle;Max_cycle;Signal;HPM_P1;HPM_P2
2022/03/02 00:02:25;;;;;;;;;;;6.90;61.50;;;;;;2380980;56;20089;-73
2022/03/02 00:04:51;;;;;;;;;;;6.80;61.40;;;;;;2380977;56;20084;-74
2022/03/02 00:07:18;;;;;;;;;;;6.80;61.20;;;;;;2381189;56;20144;-74
2022/03/02 00:09:44;;;;;;;;;;;6.80;61.10;;;;;;2380524;56;20156;-73
2022/03/02 00:12:11;;;;;;;;;;;6.80;60.90;;;;;;2381388;56;20129;-74
2022/03/02 00:14:38;;;;;;;;;;;6.70;60.90;;;;;;2381001;56;20089;-74
2022/03/02 00:17:04;;;;;;;;;;;6.60;61.00;;;;;;2381621;56;20082;-74
2022/03/02 00:19:31;;;;;;;;;;;6.50;61.20;;;;;;2380415;56;20156;-73
2022/03/02 00:21:58;;;;;;;;;;;6.50;61.70;;;;;;2381366;56;20340;-73
2022/03/02 00:24:24;;;;;;;;;;;6.50;61.50;;;;;;2380695;56;20212;-74
2022/03/02 00:26:50;;;;;;;;;;;6.50;61.80;;;;;;2381270;56;20085;-74
2022/03/02 00:29:17;;;;;;;;;;;6.50;61.70;;;;;;2381094;56;20404;-74
2022/03/02 00:31:43;;;;;;;;;;;6.50;61.70;;;;;;2381386;56;20073;-74
2022/03/02 00:34:10;;;;;;;;;;;6.40;61.60;;;;;;2381283;56;20356;-74
2022/03/02 00:36:36;;;;;;;;;;;6.40;61.70;;;;;;2381371;56;20144;-73
2022/03/02 00:39:03;;;;;;;;;;;6.40;61.90;;;;;;2635116;52;20093;-73
2022/03/02 00:41:30;;;;;;;;;;;6.40;62.00;;;;;;2381276;56;20304;-73
2022/03/02 00:43:56;;;;;;;;;;;6.30;62.00;;;;;;2380809;56;20069;-73
2022/03/02 00:46:29;;;;;;;;;;;6.30;62.00;;;;;;2381448;56;20109;-73
2022/03/02 00:48:56;;;;;;;;;;;6.30;62.40;;;;;;2380738;56;20275;-73
2022/03/02 00:51:23;;;;;;;;;;;6.30;62.50;;;;;;2380962;56;20077;-73
2022/03/02 00:53:50;;;;;;;;;;;6.30;62.40;;;;;;2381251;56;20113;-73
2022/03/02 00:56:16;;;;;;;;;;;6.30;62.50;;;;;;2380982;56;20065;-73
2022/03/02 00:58:43;;;;;;;;;;;6.30;62.60;;;;;;2381161;56;20182;-73
2022/03/02 01:01:10;;;;;;;;;;;6.30;62.90;;;;;;2381301;56;20093;-73
2022/03/02 01:03:36;;;;;;;;;;;6.20;62.70;;;;;;2380940;56;20150;-73
2022/03/02 01:06:03;;;;;;;;;;;6.20;62.80;;;;;;2635975;52;20077;-73
2022/03/02 01:08:30;;;;;;;;;;;6.20;63.00;;;;;;2381086;56;20065;-74
2022/03/02 01:10:56;;;;;;;;;;;6.20;63.10;;;;;;2381157;56;20102;-74
2022/03/02 01:13:23;;;;;;;;;;;6.20;63.10;;;;;;2381454;56;20200;-73
2022/03/02 01:15:49;;;;;;;;;;;6.30;63.00;;;;;;2381273;56;20339;-73
2022/03/02 01:18:16;;;;;;;;;;;6.20;62.90;;;;;;2635944;52;20070;-73
2022/03/02 01:20:43;;;;;;;;;;;6.20;62.90;;;;;;2380637;56;20085;-73
2022/03/02 01:23:09;;;;;;;;;;;6.20;63.00;;;;;;2635526;52;20121;-73
2022/03/02 01:25:36;;;;;;;;;;;6.20;63.00;;;;;;2381295;56;20077;-73
2022/03/02 01:28:03;;;;;;;;;;;6.20;63.80;;;;;;2381376;56;20085;-73
2022/03/02 01:30:29;;;;;;;;;;;6.20;63.00;;;;;;2380919;56;20057;-74
2022/03/02 01:32:56;;;;;;;;;;;6.20;63.00;;;;;;2381048;56;20058;-74
2022/03/02 01:35:22;;;;;;;;;;;6.20;63.00;;;;;;2380739;56;20065;-73
2022/03/02 01:37:50;;;;;;;;;;;6.20;63.20;;;;;;2380964;56;20078;-74
2022/03/02 01:40:17;;;;;;;;;;;6.20;63.00;;;;;;2631533;52;20061;-74
2022/03/02 01:42:44;;;;;;;;;;;6.20;63.10;;;;;;2333920;57;20074;-73
2022/03/02 01:45:11;;;;;;;;;;;6.20;63.00;;;;;;2333537;57;20083;-74
2022/03/02 01:47:38;;;;;;;;;;;6.10;63.10;;;;;;2334138;57;20146;-73
2022/03/02 01:52:41;;;;;;;;;;;6.10;63.10;;;;;;2274752;59;20084;-73
2022/03/02 01:55:08;;;;;;;;;;;6.10;63.10;;;;;;2293425;59;20128;-73
2022/03/02 01:57:36;;;;;;;;;;;6.20;63.10;;;;;;2293358;59;20076;-73
2022/03/02 02:00:04;;;;;;;;;;;6.10;63.50;;;;;;2293288;59;20072;-73
2022/03/02 02:02:30;;;;;;;;;;;6.10;63.00;;;;;;2267846;59;20073;-73
2022/03/02 02:04:57;;;;;;;;;;;6.00;63.00;;;;;;2267324;59;20411;-73
2022/03/02 02:07:25;;;;;;;;;;;6.10;63.30;;;;;;2267687;59;20149;-73
2022/03/02 02:09:52;;;;;;;;;;;6.00;63.50;;;;;;2267260;59;20129;-73
2022/03/02 02:12:19;;;;;;;;;;;6.00;63.40;;;;;;2267690;59;20157;-73
2022/03/02 02:14:45;;;;;;;;;;;6.10;63.30;;;;;;2267533;59;20084;-73
2022/03/02 02:17:12;;;;;;;;;;;6.00;63.20;;;;;;2267491;59;20169;-73
2022/03/02 02:19:38;;;;;;;;;;;6.00;63.20;;;;;;2267316;59;20073;-73
2022/03/02 02:22:05;;;;;;;;;;;6.00;63.40;;;;;;2267414;59;20114;-73
2022/03/02 02:24:31;;;;;;;;;;;5.90;63.40;;;;;;2267533;59;20162;-73
2022/03/02 02:26:58;;;;;;;;;;;6.00;63.60;;;;;;2267805;59;20104;-73
2022/03/02 02:29:25;;;;;;;;;;;6.00;63.60;;;;;;2267247;59;20086;-73
2022/03/02 02:31:52;;;;;;;;;;;5.90;63.50;;;;;;2267572;59;20069;-73
2022/03/02 02:34:18;;;;;;;;;;;5.90;63.50;;;;;;2267599;59;20081;-73
2022/03/02 02:36:46;;;;;;;;;;;5.90;63.40;;;;;;2497156;55;20117;-73
2022/03/02 02:39:12;;;;;;;;;;;5.80;63.50;;;;;;2267325;59;20137;-73
2022/03/02 02:41:39;;;;;;;;;;;5.80;63.80;;;;;;2267532;59;20081;-73
2022/03/02 02:44:05;;;;;;;;;;;5.80;64.00;;;;;;2267499;59;20391;-73
2022/03/02 02:46:32;;;;;;;;;;;5.70;63.90;;;;;;2267573;59;20312;-73
2022/03/02 02:48:58;;;;;;;;;;;5.70;64.10;;;;;;2267528;59;20117;-73
2022/03/02 02:51:25;;;;;;;;;;;5.70;64.30;;;;;;2267420;59;20130;-73
2022/03/02 02:53:51;;;;;;;;;;;5.70;64.30;;;;;;2267502;59;20346;-72
2022/03/02 02:56:18;;;;;;;;;;;5.70;64.40;;;;;;2267924;59;20096;-73
2022/03/02 02:58:44;;;;;;;;;;;5.70;64.30;;;;;;2267219;59;20392;-73
2022/03/02 03:01:11;;;;;;;;;;;5.70;64.20;;;;;;2267809;59;20312;-73
2022/03/02 03:03:37;;;;;;;;;;;5.70;64.10;;;;;;2267173;59;20145;-73
2022/03/02 03:06:04;;;;;;;;;;;5.70;64.10;;;;;;2495240;55;20065;-73
2022/03/02 03:08:31;;;;;;;;;;;5.70;64.20;;;;;;2266724;59;20077;-73
2022/03/02 03:13:35;;;;;;;;;;;5.70;64.30;;;;;;2238594;60;20122;-79
2022/03/02 03:16:01;;;;;;;;;;;5.70;64.50;;;;;;2244008;60;20113;-80
2022/03/02 03:18:28;;;;;;;;;;;5.70;64.40;;;;;;2243897;60;20352;-81
2022/03/02 03:20:54;;;;;;;;;;;5.70;64.40;;;;;;2243874;60;20173;-82
2022/03/02 03:23:21;;;;;;;;;;;5.70;64.40;;;;;;2497635;55;20129;-80
2022/03/02 03:25:48;;;;;;;;;;;5.60;64.30;;;;;;2498584;55;20165;-81
2022/03/02 03:28:14;;;;;;;;;;;5.60;64.40;;;;;;2498831;55;20065;-79
2022/03/02 03:30:41;;;;;;;;;;;5.60;64.40;;;;;;2498349;55;20069;-80
2022/03/02 03:33:07;;;;;;;;;;;5.60;64.40;;;;;;2498892;55;20140;-80
2022/03/02 03:35:34;;;;;;;;;;;5.60;64.50;;;;;;2498984;55;20241;-81
2022/03/02 03:38:00;;;;;;;;;;;5.70;64.50;;;;;;2498648;55;20333;-80
2022/03/02 03:40:27;;;;;;;;;;;5.60;64.20;;;;;;2498059;55;20129;-80
2022/03/02 03:42:54;;;;;;;;;;;5.70;64.10;;;;;;2269314;59;20106;-80
2022/03/02 03:45:20;;;;;;;;;;;5.70;64.00;;;;;;2499057;55;20073;-81
2022/03/02 03:47:47;;;;;;;;;;;5.60;64.00;;;;;;2499103;55;20330;-81
2022/03/02 03:50:13;;;;;;;;;;;5.60;64.10;;;;;;2498918;55;20106;-81
2022/03/02 03:52:40;;;;;;;;;;;5.70;64.30;;;;;;2269096;59;20322;-81
2022/03/02 03:55:11;;;;;;;;;;;5.60;64.20;;;;;;2499010;55;20062;-81
2022/03/02 03:57:37;;;;;;;;;;;5.60;64.40;;;;;;2498343;55;20106;-82
2022/03/02 04:00:05;;;;;;;;;;;5.60;64.40;;;;;;2498524;55;20299;-80
2022/03/02 04:02:32;;;;;;;;;;;5.60;64.40;;;;;;2269040;59;20137;-80
2022/03/02 04:04:58;;;;;;;;;;;5.60;64.20;;;;;;2498669;55;20078;-80
2022/03/02 04:07:25;;;;;;;;;;;5.60;64.20;;;;;;2269131;59;20089;-80
2022/03/02 04:09:51;;;;;;;;;;;5.60;64.10;;;;;;2268427;59;20109;-80
2022/03/02 04:12:18;;;;;;;;;;;5.60;64.20;;;;;;2268889;59;20133;-80
2022/03/02 04:14:44;;;;;;;;;;;5.60;64.20;;;;;;2268497;59;20144;-81
2022/03/02 04:17:12;;;;;;;;;;;5.50;64.10;;;;;;2498885;55;20122;-82
2022/03/02 04:19:39;;;;;;;;;;;5.50;64.10;;;;;;2498306;55;20165;-81
2022/03/02 04:22:06;;;;;;;;;;;5.50;64.00;;;;;;2268981;59;20126;-80
2022/03/02 04:24:33;;;;;;;;;;;5.50;63.90;;;;;;2268367;59;20117;-80
2022/03/02 04:26:59;;;;;;;;;;;5.50;64.00;;;;;;2269468;59;20082;-80
2022/03/02 04:29:26;;;;;;;;;;;5.50;64.10;;;;;;2499697;55;20049;-81
2022/03/02 04:31:52;;;;;;;;;;;5.50;64.10;;;;;;2498400;55;20069;-79
2022/03/02 04:34:18;;;;;;;;;;;5.40;64.10;;;;;;2269211;59;20121;-80
2022/03/02 04:36:45;;;;;;;;;;;5.40;64.20;;;;;;2269577;59;20073;-80
2022/03/02 04:39:11;;;;;;;;;;;5.40;64.00;;;;;;2269890;59;20405;-82
2022/03/02 04:41:38;;;;;;;;;;;5.40;63.90;;;;;;2499181;55;20345;-80
2022/03/02 04:44:05;;;;;;;;;;;5.30;63.80;;;;;;2499577;55;20374;-81
2022/03/02 04:46:31;;;;;;;;;;;5.30;63.90;;;;;;2499892;55;20069;-80
2022/03/02 04:49:10;;;;;;;;;;;5.30;64.00;;;;;;2269572;59;20433;-81
2022/03/02 04:51:37;;;;;;;;;;;5.30;64.00;;;;;;2499856;55;20085;-80
2022/03/02 04:54:04;;;;;;;;;;;5.30;64.90;;;;;;2269926;59;20129;-80
2022/03/02 04:56:30;;;;;;;;;;;5.20;64.00;;;;;;2270181;59;20117;-79
2022/03/02 04:58:57;;;;;;;;;;;5.20;64.30;;;;;;2269438;59;20126;-80
2022/03/02 05:01:23;;;;;;;;;;;5.20;64.40;;;;;;2269587;59;20133;-80
2022/03/02 05:03:50;;;;;;;;;;;5.20;64.50;;;;;;2269701;59;20089;-80
2022/03/02 05:06:16;;;;;;;;;;;5.20;64.30;;;;;;2499956;55;20050;-79
2022/03/02 05:08:43;;;;;;;;;;;5.20;64.00;;;;;;2268415;59;20094;-80
2022/03/02 05:11:09;;;;;;;;;;;5.20;64.40;;;;;;2269949;59;20081;-80
2022/03/02 05:13:36;;;;;;;;;;;5.20;64.60;;;;;;2269956;59;20097;-79
2022/03/02 05:16:02;;;;;;;;;;;5.10;64.60;;;;;;2499395;55;20101;-80
2022/03/02 05:18:29;;;;;;;;;;;5.10;64.70;;;;;;2499395;55;20081;-79
2022/03/02 05:20:55;;;;;;;;;;;5.10;64.70;;;;;;2269554;59;20318;-79
2022/03/02 05:23:22;;;;;;;;;;;5.10;64.70;;;;;;2269837;59;20057;-80
2022/03/02 05:25:48;;;;;;;;;;;5.10;64.80;;;;;;2269065;59;20139;-80
2022/03/02 05:28:14;;;;;;;;;;;5.10;64.80;;;;;;2269262;59;20101;-80
2022/03/02 05:30:41;;;;;;;;;;;5.10;64.90;;;;;;2269375;59;20070;-80
2022/03/02 05:33:07;;;;;;;;;;;5.10;65.00;;;;;;2270196;59;20330;-79
2022/03/02 05:35:34;;;;;;;;;;;5.00;65.00;;;;;;2500246;55;20069;-80
2022/03/02 05:38:00;;;;;;;;;;;5.10;65.00;;;;;;2500201;55;20343;-79
2022/03/02 05:40:27;;;;;;;;;;;5.00;65.10;;;;;;2499736;55;20073;-80
2022/03/02 05:42:55;;;;;;;;;;;5.00;65.40;;;;;;2270533;59;20070;-80
2022/03/02 05:45:21;;;;;;;;;;;5.00;65.40;;;;;;2270192;59;20093;-80
2022/03/02 05:47:48;;;;;;;;;;;5.00;65.40;;;;;;2499126;55;20152;-79
2022/03/02 05:50:14;;;;;;;;;;;4.90;65.20;;;;;;2499656;55;20082;-81
2022/03/02 05:52:41;;;;;;;;;;;4.90;65.20;;;;;;2270182;59;20085;-78
2022/03/02 05:55:08;;;;;;;;;;;4.90;65.40;;;;;;2269917;59;20463;-80
2022/03/02 05:57:35;;;;;;;;;;;4.90;65.40;;;;;;2270635;59;20154;-81
2022/03/02 06:00:01;;;;;;;;;;;4.90;65.40;;;;;;2499954;55;20073;-82
2022/03/02 06:02:28;;;;;;;;;;;4.90;65.30;;;;;;2500711;55;20082;-81
2022/03/02 06:04:54;;;;;;;;;;;4.90;65.10;;;;;;2269816;59;20094;-81
2022/03/02 06:07:21;;;;;;;;;;;4.90;65.20;;;;;;2270097;59;20315;-81
2022/03/02 06:09:49;;;;;;;;;;;4.80;65.30;;;;;;2499839;55;20065;-80
2022/03/02 06:12:16;;;;;;;;;;;4.80;65.30;;;;;;2500393;55;20093;-80
2022/03/02 06:14:43;;;;;;;;;;;4.80;65.30;;;;;;2270378;59;20117;-81
2022/03/02 06:17:11;;;;;;;;;;;4.80;65.40;;;;;;2500529;55;20137;-81
2022/03/02 06:19:38;;;;;;;;;;;4.80;65.40;;;;;;2270503;59;20113;-81
2022/03/02 06:22:06;;;;;;;;;;;4.80;65.30;;;;;;2270795;59;20354;-81
2022/03/02 06:24:33;;;;;;;;;;;4.70;65.20;;;;;;2270344;59;20113;-80
2022/03/02 06:26:59;;;;;;;;;;;4.70;65.10;;;;;;2270480;59;20073;-81
2022/03/02 06:29:26;;;;;;;;;;;4.70;65.10;;;;;;2270086;59;20073;-81
2022/03/02 06:31:52;;;;;;;;;;;4.70;65.10;;;;;;2499928;55;20121;-80
2022/03/02 06:34:19;;;;;;;;;;;4.70;65.10;;;;;;2270228;59;20137;-83
2022/03/02 06:36:49;;;;;;;;;;;4.60;65.00;;;;;;2270193;59;20085;-82
2022/03/02 06:39:16;;;;;;;;;;;4.60;65.10;;;;;;2499920;55;20085;-81
2022/03/02 06:41:46;;;;;;;;;;;4.70;65.20;;;;;;2270049;59;20113;-81
2022/03/02 06:44:18;;;;;;;;;;;4.60;65.10;;;;;;2270396;59;20117;-82
2022/03/02 06:46:50;;;;;;;;;;;4.60;65.20;;;;;;2270160;59;20093;-81
2022/03/02 06:49:20;;;;;;;;;;;4.60;65.40;;;;;;2269974;59;20125;-81
2022/03/02 06:51:47;;;;;;;;;;;4.50;65.40;;;;;;2270217;59;20379;-81
2022/03/02 06:54:14;;;;;;;;;;;4.50;65.50;;;;;;2499964;55;20093;-82
2022/03/02 06:56:46;;;;;;;;;;;4.50;65.50;;;;;;2269824;59;20091;-83
2022/03/02 06:59:13;;;;;;;;;;;4.50;65.70;;;;;;2270087;59;20386;-81
2022/03/02 07:01:42;;;;;;;;;;;4.50;65.90;;;;;;2270374;59;20073;-81
2022/03/02 07:04:12;;;;;;;;;;;4.40;66.10;;;;;;2270218;59;20085;-81
2022/03/02 07:06:40;;;;;;;;;;;4.50;66.30;;;;;;2500176;55;20135;-81
2022/03/02 07:09:07;;;;;;;;;;;4.50;66.30;;;;;;2499473;55;20101;-80
2022/03/02 07:11:34;;;;;;;;;;;4.50;66.20;;;;;;2267727;59;20069;-81
2022/03/02 07:14:01;;;;;;;;;;;4.50;66.20;;;;;;2499718;55;20106;-81
2022/03/02 07:16:28;;;;;;;;;;;4.50;66.10;;;;;;2269134;59;20110;-82
2022/03/02 07:18:55;;;;;;;;;;;4.50;66.10;;;;;;2269163;59;20062;-81
2022/03/02 07:21:25;;;;;;;;;;;4.50;66.10;;;;;;2269253;59;20133;-82
2022/03/02 07:23:54;;;;;;;;;;;4.50;66.10;;;;;;2269105;59;20057;-81
2022/03/02 07:26:21;;;;;;;;;;;4.50;66.20;;;;;;2499180;55;20065;-80
2022/03/02 07:28:48;;;;;;;;;;;4.50;66.50;;;;;;2498995;55;20077;-81
2022/03/02 07:31:15;;;;;;;;;;;4.60;66.70;;;;;;2269027;59;20070;-80
2022/03/02 07:33:43;;;;;;;;;;;4.60;66.70;;;;;;2268452;59;20243;-83
2022/03/02 07:36:11;;;;;;;;;;;4.60;66.60;;;;;;2498847;55;20160;-81
2022/03/02 07:38:37;;;;;;;;;;;4.60;66.70;;;;;;2268912;59;20078;-80
2022/03/02 07:41:06;;;;;;;;;;;4.60;66.70;;;;;;2496954;55;20486;-79
2022/03/02 07:43:36;;;;;;;;;;;4.60;66.80;;;;;;2498112;55;20057;-83
2022/03/02 07:46:02;;;;;;;;;;;4.70;67.00;;;;;;2497985;55;20090;-82
2022/03/02 07:48:29;;;;;;;;;;;4.70;66.90;;;;;;2268521;59;20370;-80
2022/03/02 07:50:56;;;;;;;;;;;4.70;66.90;;;;;;2496696;55;20065;-81
2022/03/02 07:53:26;;;;;;;;;;;4.70;67.00;;;;;;2497788;55;20153;-80
2022/03/02 07:55:53;;;;;;;;;;;4.80;67.20;;;;;;2269298;59;20070;-80
2022/03/02 07:58:20;;;;;;;;;;;4.80;67.30;;;;;;2498516;55;20080;-81
2022/03/02 08:00:48;;;;;;;;;;;4.80;67.30;;;;;;2267708;59;20061;-80
2022/03/02 08:03:16;;;;;;;;;;;4.80;67.40;;;;;;2269387;59;20074;-81
2022/03/02 08:05:44;;;;;;;;;;;4.90;67.50;;;;;;2498303;55;20089;-81
2022/03/02 08:08:11;;;;;;;;;;;4.90;67.60;;;;;;2268663;59;20149;-80
2022/03/02 08:10:37;;;;;;;;;;;4.90;68.00;;;;;;2268295;59;20117;-81
2022/03/02 08:13:04;;;;;;;;;;;4.90;67.80;;;;;;2268907;59;20216;-82
2022/03/02 08:15:31;;;;;;;;;;;5.00;67.50;;;;;;2267750;59;20081;-79
2022/03/02 08:17:58;;;;;;;;;;;5.00;67.30;;;;;;2498576;55;20420;-80
2022/03/02 08:20:24;;;;;;;;;;;5.00;67.50;;;;;;2497867;55;20233;-81
2022/03/02 08:22:51;;;;;;;;;;;5.00;67.90;;;;;;2268873;59;20089;-81
2022/03/02 08:25:21;;;;;;;;;;;5.00;67.90;;;;;;2498027;55;20089;-78
2022/03/02 08:27:49;;;;;;;;;;;5.10;68.50;;;;;;2269151;59;20121;-79
2022/03/02 08:30:16;;;;;;;;;;;5.20;68.00;;;;;;2498657;55;20393;-82
2022/03/02 08:32:43;;;;;;;;;;;5.20;67.60;;;;;;2267640;59;20134;-80
2022/03/02 08:35:11;;;;;;;;;;;5.30;67.50;;;;;;2269291;59;20141;-80
2022/03/02 08:37:37;;;;;;;;;;;5.30;68.00;;;;;;2498902;55;20062;-80
2022/03/02 08:40:05;;;;;;;;;;;5.40;67.80;;;;;;2499305;55;20497;-81
2022/03/02 08:42:32;;;;;;;;;;;5.30;67.60;;;;;;2499246;55;20070;-80
2022/03/02 08:44:59;;;;;;;;;;;5.40;67.40;;;;;;2499665;55;20074;-80
2022/03/02 08:47:25;;;;;;;;;;;5.40;67.10;;;;;;2269412;59;20054;-80
2022/03/02 08:49:54;;;;;;;;;;;5.40;67.10;;;;;;2498727;55;20090;-80
2022/03/02 08:52:25;;;;;;;;;;;5.40;67.40;;;;;;2268451;59;20094;-81
2022/03/02 08:54:52;;;;;;;;;;;5.40;66.30;;;;;;2269174;59;20074;-80
2022/03/02 08:57:19;;;;;;;;;;;5.50;65.60;;;;;;2499586;55;20132;-80
2022/03/02 08:59:45;;;;;;;;;;;5.50;65.60;;;;;;2499155;55;20077;-80
2022/03/02 09:02:17;;;;;;;;;;;5.50;65.60;;;;;;2498896;55;20125;-79
2022/03/02 09:04:44;;;;;;;;;;;5.60;65.70;;;;;;2269402;59;20070;-80
2022/03/02 09:07:10;;;;;;;;;;;5.60;65.90;;;;;;2269449;59;20073;-81
2022/03/02 09:09:38;;;;;;;;;;;5.70;66.10;;;;;;2269495;59;20073;-81
2022/03/02 09:14:41;;;;;;;;;;;5.70;66.50;;;;;;2359238;57;20069;-72
2022/03/02 09:17:08;;;;;;;;;;;5.80;66.90;;;;;;2378166;56;20390;-73
2022/03/02 09:19:35;;;;;;;;;;;5.80;67.00;;;;;;2377364;56;20152;-71
2022/03/02 09:22:03;;;;;;;;;;;5.90;67.20;;;;;;2355281;56;20121;-72
2022/03/02 09:24:30;;;;;;;;;;;5.90;67.10;;;;;;2350510;57;20070;-72
2022/03/02 09:26:57;;;;;;;;;;;6.00;66.90;;;;;;2350610;57;20149;-72
2022/03/02 09:29:27;;;;;;;;;;;6.00;66.60;;;;;;2598433;53;20062;-72
2022/03/02 09:31:56;;;;;;;;;;;6.10;66.40;;;;;;2350788;57;20094;-71
2022/03/02 09:34:24;;;;;;;;;;;6.10;66.50;;;;;;2350785;57;20106;-72
2022/03/02 09:36:53;;;;;;;;;;;6.10;66.60;;;;;;2596905;53;20285;-72
2022/03/02 09:39:19;;;;;;;;;;;6.20;66.80;;;;;;2350942;57;20071;-72
2022/03/02 09:41:49;;;;;;;;;;;6.30;66.90;;;;;;2350568;57;20137;-72
2022/03/02 09:44:18;;;;;;;;;;;6.30;66.90;;;;;;2350900;57;20066;-72
2022/03/02 09:46:48;;;;;;;;;;;6.30;66.90;;;;;;2350900;57;20078;-73
2022/03/02 09:49:19;;;;;;;;;;;6.40;67.20;;;;;;2597663;53;20079;-72
2022/03/02 09:51:50;;;;;;;;;;;6.40;66.40;;;;;;2350983;57;20094;-72
2022/03/02 09:54:20;;;;;;;;;;;6.50;66.30;;;;;;2349553;57;20142;-72
2022/03/02 09:56:48;;;;;;;;;;;6.50;66.00;;;;;;2351143;57;20082;-72
2022/03/02 09:59:17;;;;;;;;;;;6.50;65.90;;;;;;2350430;57;20122;-72
2022/03/02 10:01:44;;;;;;;;;;;6.60;65.90;;;;;;2350401;57;20106;-73
2022/03/02 10:04:13;;;;;;;;;;;6.60;65.90;;;;;;2350621;57;20193;-72
2022/03/02 10:06:42;;;;;;;;;;;6.70;65.80;;;;;;2350680;57;20121;-71
2022/03/02 10:09:10;;;;;;;;;;;6.70;65.60;;;;;;2350568;57;20106;-71
2022/03/02 10:11:39;;;;;;;;;;;6.70;65.70;;;;;;2597264;52;20109;-71
2022/03/02 10:14:06;;;;;;;;;;;6.80;65.60;;;;;;2350056;57;20150;-73
2022/03/02 10:16:35;;;;;;;;;;;6.80;65.70;;;;;;2350665;57;20143;-74
2022/03/02 10:19:02;;;;;;;;;;;6.80;65.60;;;;;;2350229;57;20066;-74
2022/03/02 10:21:30;;;;;;;;;;;6.90;65.40;;;;;;2350451;57;20067;-72
2022/03/02 10:23:59;;;;;;;;;;;6.90;65.20;;;;;;2349757;57;20063;-72
2022/03/02 10:26:27;;;;;;;;;;;7.00;64.90;;;;;;2349822;57;20090;-71
2022/03/02 10:28:56;;;;;;;;;;;7.00;65.50;;;;;;2349722;57;20342;-71
2022/03/02 10:31:33;;;;;;;;;;;7.10;64.10;;;;;;2349962;57;20075;-72
2022/03/02 10:34:03;;;;;;;;;;;7.10;63.20;;;;;;2350148;57;20106;-72
2022/03/02 10:36:30;;;;;;;;;;;7.20;63.30;;;;;;2597526;53;20128;-74
2022/03/02 10:39:03;;;;;;;;;;;7.20;63.10;;;;;;2349545;57;20170;-75
2022/03/02 10:41:33;;;;;;;;;;;7.20;63.00;;;;;;2348452;57;20133;-73
2022/03/02 10:44:00;;;;;;;;;;;7.20;62.40;;;;;;2349831;57;20136;-73
2022/03/02 10:46:27;;;;;;;;;;;7.20;61.90;;;;;;2350058;57;20050;-73
2022/03/02 10:49:02;;;;;;;;;;;7.30;61.70;;;;;;2349185;57;20185;-76
2022/03/02 10:51:29;;;;;;;;;;;7.40;62.10;;;;;;2597242;52;20376;-74
2022/03/02 10:53:56;;;;;;;;;;;7.40;62.30;;;;;;2348118;57;20134;-73
2022/03/02 10:56:26;;;;;;;;;;;7.50;62.00;;;;;;2348159;57;20067;-73
2022/03/02 10:58:54;;;;;;;;;;;7.50;62.20;;;;;;2349719;57;20146;-74
2022/03/02 11:01:20;;;;;;;;;;;7.50;61.80;;;;;;2349660;57;20138;-73
2022/03/02 11:03:47;;;;;;;;;;;7.60;62.00;;;;;;2350116;57;20063;-74
2022/03/02 11:06:14;;;;;;;;;;;7.70;61.60;;;;;;2350076;57;20119;-73
2022/03/02 11:08:42;;;;;;;;;;;7.70;61.90;;;;;;2349802;57;20133;-74
2022/03/02 11:11:09;;;;;;;;;;;7.80;61.70;;;;;;2349995;57;20082;-74
2022/03/02 11:13:36;;;;;;;;;;;7.90;60.60;;;;;;2349235;57;20091;-73
2022/03/02 11:16:03;;;;;;;;;;;7.90;60.30;;;;;;2350140;57;20062;-73
2022/03/02 11:18:34;;;;;;;;;;;8.00;59.40;;;;;;2350111;57;20122;-74
2022/03/02 11:21:01;;;;;;;;;;;8.00;59.40;;;;;;2349821;57;20114;-73
2022/03/02 11:23:30;;;;;;;;;;;8.10;59.30;;;;;;2349873;57;20070;-73
2022/03/02 11:26:04;;;;;;;;;;;8.20;59.50;;;;;;2350342;57;20062;-73
2022/03/02 11:28:31;;;;;;;;;;;8.20;58.80;;;;;;2350137;57;20137;-74
2022/03/02 11:31:01;;;;;;;;;;;8.30;59.00;;;;;;2349956;57;20102;-73
2022/03/02 11:33:28;;;;;;;;;;;8.40;59.10;;;;;;2349035;57;20079;-74
2022/03/02 11:35:59;;;;;;;;;;;8.40;58.90;;;;;;2349965;57;20074;-74
2022/03/02 11:38:29;;;;;;;;;;;8.50;58.30;;;;;;2350307;57;20075;-73
2022/03/02 11:40:56;;;;;;;;;;;8.50;58.10;;;;;;2596657;53;20149;-73
2022/03/02 11:43:25;;;;;;;;;;;8.60;58.20;;;;;;2350056;57;20110;-73
2022/03/02 11:48:28;;;;;;;;;;;8.80;58.30;;;;;;2359361;57;20033;-73
2022/03/02 11:51:01;;;;;;;;;;;8.80;58.00;;;;;;2388526;56;20072;-72
2022/03/02 11:53:29;;;;;;;;;;;8.90;57.50;;;;;;2406958;56;20124;-72
2022/03/02 11:55:56;;;;;;;;;;;9.00;57.30;;;;;;2407338;56;20469;-72
2022/03/02 11:58:22;;;;;;;;;;;9.00;57.20;;;;;;2407007;56;20080;-72
2022/03/02 12:00:49;;;;;;;;;;;9.10;57.10;;;;;;2406558;56;20084;-72
2022/03/02 12:03:15;;;;;;;;;;;9.10;56.70;;;;;;2406354;56;20072;-72
2022/03/02 12:05:42;;;;;;;;;;;9.20;56.60;;;;;;2406091;56;20084;-72
2022/03/02 12:08:09;;;;;;;;;;;9.30;56.40;;;;;;2406983;56;20084;-72
2022/03/02 12:10:37;;;;;;;;;;;9.30;56.00;;;;;;2404833;56;20088;-73
2022/03/02 12:13:04;;;;;;;;;;;9.30;55.70;;;;;;2666760;52;20187;-73
2022/03/02 12:15:42;;;;;;;;;;;9.40;55.60;;;;;;2406025;56;20204;-73
2022/03/02 12:18:09;;;;;;;;;;;9.50;55.40;;;;;;2405937;56;20104;-72
2022/03/02 12:20:42;;;;;;;;;;;9.50;55.60;;;;;;2405646;56;20489;-73
2022/03/02 12:23:09;;;;;;;;;;;9.60;55.70;;;;;;2405847;56;20088;-73
2022/03/02 12:25:42;;;;;;;;;;;9.60;55.40;;;;;;2404651;56;20076;-72
2022/03/02 12:28:09;;;;;;;;;;;9.70;55.50;;;;;;2406462;56;20070;-72
2022/03/02 12:30:36;;;;;;;;;;;9.70;55.40;;;;;;2405448;56;20181;-72
2022/03/02 12:33:04;;;;;;;;;;;9.70;54.80;;;;;;2406252;56;20076;-72
2022/03/02 12:35:31;;;;;;;;;;;9.80;54.30;;;;;;2666117;52;20128;-72
2022/03/02 12:37:59;;;;;;;;;;;9.80;54.30;;;;;;2406161;56;20069;-73
2022/03/02 12:40:29;;;;;;;;;;;9.90;54.40;;;;;;2405200;56;20069;-73
2022/03/02 12:42:56;;;;;;;;;;;9.90;54.60;;;;;;2406594;56;20122;-73
2022/03/02 12:45:23;;;;;;;;;;;9.90;54.80;;;;;;2405670;56;20064;-74
2022/03/02 12:47:51;;;;;;;;;;;10.00;54.50;;;;;;2406011;56;20179;-73
2022/03/02 12:50:18;;;;;;;;;;;10.10;53.90;;;;;;2405672;56;20139;-73
2022/03/02 12:52:47;;;;;;;;;;;10.10;53.70;;;;;;2666336;52;20056;-73
2022/03/02 12:55:14;;;;;;;;;;;10.00;54.10;;;;;;2405553;56;20077;-73
2022/03/02 12:57:41;;;;;;;;;;;10.10;54.60;;;;;;2405555;56;20068;-72
2022/03/02 13:00:10;;;;;;;;;;;10.10;53.70;;;;;;2404910;56;20135;-73
2022/03/02 13:02:37;;;;;;;;;;;10.10;54.20;;;;;;2664445;52;20284;-73
2022/03/02 13:05:08;;;;;;;;;;;10.20;53.60;;;;;;2665062;52;20064;-72
2022/03/02 13:07:40;;;;;;;;;;;10.20;53.60;;;;;;2405545;56;20384;-72
2022/03/02 13:10:08;;;;;;;;;;;10.20;53.20;;;;;;2405239;56;20056;-72
2022/03/02 13:12:36;;;;;;;;;;;10.20;53.50;;;;;;2665405;52;20076;-74
2022/03/02 13:15:09;;;;;;;;;;;10.30;52.70;;;;;;2405728;56;20092;-73
2022/03/02 13:17:35;;;;;;;;;;;10.30;52.60;;;;;;2665258;52;20112;-74
2022/03/02 13:20:02;;;;;;;;;;;10.30;52.90;;;;;;2663988;52;20061;-73
2022/03/02 13:22:30;;;;;;;;;;;10.30;52.30;;;;;;2665184;52;20109;-73
2022/03/02 13:25:01;;;;;;;;;;;10.30;52.40;;;;;;2405066;56;20116;-73
2022/03/02 13:27:27;;;;;;;;;;;10.40;52.40;;;;;;2405386;56;20124;-73
2022/03/02 13:30:03;;;;;;;;;;;10.40;52.70;;;;;;2404704;56;20127;-73
2022/03/02 13:32:52;;;;;;;;;;;10.40;52.50;;;;;;2405082;56;20076;-73
2022/03/02 13:35:19;;;;;;;;;;;10.40;52.30;;;;;;2405018;56;20068;-73
2022/03/02 13:38:03;;;;;;;;;;;10.40;52.50;;;;;;2405594;56;20072;-73
2022/03/02 13:40:36;;;;;;;;;;;10.40;52.50;;;;;;2404450;56;20477;-76
2022/03/02 13:43:28;;;;;;;;;;;10.40;52.80;;;;;;2405244;56;20064;-76
2022/03/02 13:46:14;;;;;;;;;;;10.40;53.00;;;;;;2404870;56;20076;-77
2022/03/02 13:48:47;;;;;;;;;;;10.50;53.00;;;;;;2404627;56;20103;-74
2022/03/02 13:51:13;;;;;;;;;;;10.50;53.00;;;;;;2405248;56;20178;-73
2022/03/02 13:53:40;;;;;;;;;;;10.50;53.00;;;;;;2404834;56;20339;-73
2022/03/02 13:56:08;;;;;;;;;;;10.50;52.70;;;;;;2405309;56;20076;-73
2022/03/02 13:58:35;;;;;;;;;;;10.50;52.40;;;;;;2664717;52;20139;-73
2022/03/02 14:01:11;;;;;;;;;;;10.60;52.50;;;;;;2404705;56;20069;-73
2022/03/02 14:03:43;;;;;;;;;;;10.60;52.40;;;;;;2665144;52;20076;-73
2022/03/02 14:06:10;;;;;;;;;;;10.60;52.80;;;;;;2405155;56;20140;-72
2022/03/02 14:08:44;;;;;;;;;;;10.60;53.40;;;;;;2405189;56;20113;-74
2022/03/02 14:11:25;;;;;;;;;;;10.60;52.90;;;;;;2664263;52;20069;-73
2022/03/02 14:13:52;;;;;;;;;;;10.60;53.00;;;;;;2405081;56;20125;-73
2022/03/02 14:16:18;;;;;;;;;;;10.70;53.20;;;;;;2404600;56;20327;-73
2022/03/02 14:18:46;;;;;;;;;;;10.70;53.00;;;;;;2405223;56;20088;-70
2022/03/02 14:21:13;;;;;;;;;;;10.70;53.00;;;;;;2405373;56;20068;-73
2022/03/02 14:23:46;;;;;;;;;;;10.70;52.90;;;;;;2405559;56;20065;-73
2022/03/02 14:26:12;;;;;;;;;;;10.80;53.00;;;;;;2665239;52;20409;-72
2022/03/02 14:28:39;;;;;;;;;;;10.80;53.30;;;;;;2404938;56;20131;-73
2022/03/02 14:31:07;;;;;;;;;;;10.80;53.50;;;;;;2405174;56;20072;-73
2022/03/02 14:33:34;;;;;;;;;;;10.80;53.50;;;;;;2404101;56;20076;-73
2022/03/02 14:36:00;;;;;;;;;;;10.80;53.90;;;;;;2404601;56;20061;-74
2022/03/02 14:38:29;;;;;;;;;;;10.80;54.00;;;;;;2405147;56;20362;-74
2022/03/02 14:40:56;;;;;;;;;;;10.80;53.90;;;;;;2404731;56;20068;-74
2022/03/02 14:43:23;;;;;;;;;;;10.80;53.80;;;;;;2405249;56;20144;-74